sensor_id;sensor_type;location;lat;lon;timestamp;temperature;humidity
68257;DHT22;55069;51.568;4.656;2023-03-01T00:00:54;-0.25;81.16
68257;DHT22;55069;51.568;4.656;2023-03-01T00:03:20;-0.21;81.21
68257;DHT22;55069;51.568;4.656;2023-03-01T00:05:46;-0.21;81.33
68257;DHT22;55069;51.568;4.656;2023-03-01T00:08:12;-0.27;81.69
68257;DHT22;55069;51.568;4.656;2023-03-01T00:10:38;-0.27;81.83
68257;DHT22;55069;51.568;4.656;2023-03-01T00:13:03;-0.28;82.04
68257;DHT22;55069;51.568;4.656;2023-03-01T00:15:31;-0.25;82.09
68257;DHT22;55069;51.568;4.656;2023-03-01T00:17:57;-0.34;82.08
68257;DHT22;55069;51.568;4.656;2023-03-01T00:20:23;-0.28;81.94
68257;DHT22;55069;51.568;4.656;2023-03-01T00:22:48;-0.35;82.13
68257;DHT22;55069;51.568;4.656;2023-03-01T00:25:14;-0.41;82.67
68257;DHT22;55069;51.568;4.656;2023-03-01T00:27:39;-0.41;82.63
68257;DHT22;55069;51.568;4.656;2023-03-01T00:30:05;-0.45;82.79
68257;DHT22;55069;51.568;4.656;2023-03-01T00:32:31;-0.45;82.85
68257;DHT22;55069;51.568;4.656;2023-03-01T00:34:56;-0.54;82.69
68257;DHT22;55069;51.568;4.656;2023-03-01T00:37:23;-0.55;82.96
68257;DHT22;55069;51.568;4.656;2023-03-01T00:39:49;-0.47;82.65
68257;DHT22;55069;51.568;4.656;2023-03-01T00:42:15;-0.51;83.02
68257;DHT22;55069;51.568;4.656;2023-03-01T00:44:41;-0.48;82.84
68257;DHT22;55069;51.568;4.656;2023-03-01T00:47:07;-0.47;82.91
68257;DHT22;55069;51.568;4.656;2023-03-01T00:49:32;-0.51;82.46
68257;DHT22;55069;51.568;4.656;2023-03-01T00:51:58;-0.52;82.60
68257;DHT22;55069;51.568;4.656;2023-03-01T00:54:23;-0.54;82.85
68257;DHT22;55069;51.568;4.656;2023-03-01T00:56:48;-0.57;82.84
68257;DHT22;55069;51.568;4.656;2023-03-01T00:59:14;-0.61;82.86
68257;DHT22;55069;51.568;4.656;2023-03-01T01:01:40;-0.58;83.23
68257;DHT22;55069;51.568;4.656;2023-03-01T01:04:07;-0.59;83.23
68257;DHT22;55069;51.568;4.656;2023-03-01T01:06:39;-0.65;83.04
68257;DHT22;55069;51.568;4.656;2023-03-01T01:09:09;-0.62;83.02
68257;DHT22;55069;51.568;4.656;2023-03-01T01:11:35;-0.54;82.72
68257;DHT22;55069;51.568;4.656;2023-03-01T01:14:02;-0.59;82.98
68257;DHT22;55069;51.568;4.656;2023-03-01T01:16:28;-0.71;82.95
68257;DHT22;55069;51.568;4.656;2023-03-01T01:18:55;-0.68;83.22
68257;DHT22;55069;51.568;4.656;2023-03-01T01:21:22;-0.78;83.20
68257;DHT22;55069;51.568;4.656;2023-03-01T01:23:49;-0.72;83.44
68257;DHT22;55069;51.568;4.656;2023-03-01T01:26:18;-0.65;83.46
68257;DHT22;55069;51.568;4.656;2023-03-01T01:28:45;-0.69;83.26
68257;DHT22;55069;51.568;4.656;2023-03-01T01:31:11;-0.68;83.47
68257;DHT22;55069;51.568;4.656;2023-03-01T01:33:36;-0.66;83.70
68257;DHT22;55069;51.568;4.656;2023-03-01T01:36:03;-0.72;83.70
68257;DHT22;55069;51.568;4.656;2023-03-01T01:38:29;-0.76;84.04
68257;DHT22;55069;51.568;4.656;2023-03-01T01:40:55;-0.76;84.12
68257;DHT22;55069;51.568;4.656;2023-03-01T01:43:29;-0.78;84.39
68257;DHT22;55069;51.568;4.656;2023-03-01T01:46:04;-0.85;84.62
68257;DHT22;55069;51.568;4.656;2023-03-01T01:48:42;-0.85;84.77
68257;DHT22;55069;51.568;4.656;2023-03-01T01:51:13;-0.85;84.84
68257;DHT22;55069;51.568;4.656;2023-03-01T01:53:42;-0.89;85.02
68257;DHT22;55069;51.568;4.656;2023-03-01T01:56:10;-0.93;85.19
68257;DHT22;55069;51.568;4.656;2023-03-01T01:58:38;-0.86;85.05
68257;DHT22;55069;51.568;4.656;2023-03-01T02:01:05;-0.89;85.22
68257;DHT22;55069;51.568;4.656;2023-03-01T02:03:32;-0.86;84.95
68257;DHT22;55069;51.568;4.656;2023-03-01T02:06:22;-0.89;85.19
68257;DHT22;55069;51.568;4.656;2023-03-01T02:08:57;-0.89;85.22
68257;DHT22;55069;51.568;4.656;2023-03-01T02:11:24;-0.88;85.42
68257;DHT22;55069;51.568;4.656;2023-03-01T02:13:52;-0.97;85.52
68257;DHT22;55069;51.568;4.656;2023-03-01T02:16:19;-1.06;85.88
68257;DHT22;55069;51.568;4.656;2023-03-01T02:18:45;-1.09;85.87
68257;DHT22;55069;51.568;4.656;2023-03-01T02:23:42;-1.10;86.12
68257;DHT22;55069;51.568;4.656;2023-03-01T02:26:12;-1.11;86.19
68257;DHT22;55069;51.568;4.656;2023-03-01T02:28:42;-1.06;86.17
68257;DHT22;55069;51.568;4.656;2023-03-01T02:31:09;-1.00;86.02
68257;DHT22;55069;51.568;4.656;2023-03-01T02:33:55;-1.00;86.01
68257;DHT22;55069;51.568;4.656;2023-03-01T02:36:25;-1.00;85.91
68257;DHT22;55069;51.568;4.656;2023-03-01T02:38:53;-1.10;85.99
68257;DHT22;55069;51.568;4.656;2023-03-01T02:41:21;-1.09;86.13
68257;DHT22;55069;51.568;4.656;2023-03-01T02:43:48;-1.16;86.09
68257;DHT22;55069;51.568;4.656;2023-03-01T02:46:17;-1.19;86.37
68257;DHT22;55069;51.568;4.656;2023-03-01T02:48:45;-1.13;86.33
68257;DHT22;55069;51.568;4.656;2023-03-01T02:54:08;-1.14;86.30
68257;DHT22;55069;51.568;4.656;2023-03-01T02:56:35;-1.10;86.39
68257;DHT22;55069;51.568;4.656;2023-03-01T02:59:02;-1.11;86.32
68257;DHT22;55069;51.568;4.656;2023-03-01T03:01:29;-1.09;86.17
68257;DHT22;55069;51.568;4.656;2023-03-01T03:04:08;-1.07;85.96
68257;DHT22;55069;51.568;4.656;2023-03-01T03:06:35;-1.09;85.89
68257;DHT22;55069;51.568;4.656;2023-03-01T03:09:02;-1.16;85.98
68257;DHT22;55069;51.568;4.656;2023-03-01T03:11:27;-1.17;85.97
68257;DHT22;55069;51.568;4.656;2023-03-01T03:13:53;-1.20;85.78
68257;DHT22;55069;51.568;4.656;2023-03-01T03:16:20;-1.13;85.52
68257;DHT22;55069;51.568;4.656;2023-03-01T03:18:46;-1.14;85.26
68257;DHT22;55069;51.568;4.656;2023-03-01T03:21:12;-1.14;85.13
68257;DHT22;55069;51.568;4.656;2023-03-01T03:23:38;-1.11;84.97
68257;DHT22;55069;51.568;4.656;2023-03-01T03:26:05;-1.11;84.74
68257;DHT22;55069;51.568;4.656;2023-03-01T03:28:35;-1.23;85.06
68257;DHT22;55069;51.568;4.656;2023-03-01T03:31:01;-1.28;85.13
68257;DHT22;55069;51.568;4.656;2023-03-01T03:33:30;-1.26;85.15
68257;DHT22;55069;51.568;4.656;2023-03-01T03:35:56;-1.23;85.07
68257;DHT22;55069;51.568;4.656;2023-03-01T03:38:22;-1.17;84.75
68257;DHT22;55069;51.568;4.656;2023-03-01T03:40:49;-1.21;84.56
68257;DHT22;55069;51.568;4.656;2023-03-01T03:43:23;-1.24;84.69
68257;DHT22;55069;51.568;4.656;2023-03-01T03:45:49;-1.14;84.35
68257;DHT22;55069;51.568;4.656;2023-03-01T03:48:16;-1.16;84.11
68257;DHT22;55069;51.568;4.656;2023-03-01T03:50:47;-1.20;84.13
68257;DHT22;55069;51.568;4.656;2023-03-01T03:53:14;-1.19;84.31
68257;DHT22;55069;51.568;4.656;2023-03-01T03:55:40;-1.17;84.21
68257;DHT22;55069;51.568;4.656;2023-03-01T03:58:07;-1.20;84.03
68257;DHT22;55069;51.568;4.656;2023-03-01T04:00:35;-1.28;84.37
68257;DHT22;55069;51.568;4.656;2023-03-01T04:03:01;-1.24;84.24
68257;DHT22;55069;51.568;4.656;2023-03-01T04:05:27;-1.27;84.20
68257;DHT22;55069;51.568;4.656;2023-03-01T04:07:53;-1.33;84.41
68257;DHT22;55069;51.568;4.656;2023-03-01T04:10:28;-1.37;84.47
68257;DHT22;55069;51.568;4.656;2023-03-01T04:12:54;-1.31;84.31
68257;DHT22;55069;51.568;4.656;2023-03-01T04:15:21;-1.41;84.52
68257;DHT22;55069;51.568;4.656;2023-03-01T04:17:50;-1.47;84.64
68257;DHT22;55069;51.568;4.656;2023-03-01T04:20:20;-1.48;84.86
68257;DHT22;55069;51.568;4.656;2023-03-01T04:22:59;-1.51;84.86
68257;DHT22;55069;51.568;4.656;2023-03-01T04:28:31;-1.57;85.26
68257;DHT22;55069;51.568;4.656;2023-03-01T04:31:04;-1.62;85.17
68257;DHT22;55069;51.568;4.656;2023-03-01T04:33:46;-1.59;85.15
68257;DHT22;55069;51.568;4.656;2023-03-01T04:36:14;-1.61;84.89
68257;DHT22;55069;51.568;4.656;2023-03-01T04:38:40;-1.64;84.82
68257;DHT22;55069;51.568;4.656;2023-03-01T04:41:08;-1.69;84.69
68257;DHT22;55069;51.568;4.656;2023-03-01T04:43:35;-1.58;84.55
68257;DHT22;55069;51.568;4.656;2023-03-01T04:46:02;-1.58;84.39
68257;DHT22;55069;51.568;4.656;2023-03-01T04:48:29;-1.61;84.53
68257;DHT22;55069;51.568;4.656;2023-03-01T04:50:54;-1.67;84.68
68257;DHT22;55069;51.568;4.656;2023-03-01T04:53:20;-1.68;84.63
68257;DHT22;55069;51.568;4.656;2023-03-01T04:55:45;-1.76;84.68
68257;DHT22;55069;51.568;4.656;2023-03-01T04:58:11;-1.75;84.91
68257;DHT22;55069;51.568;4.656;2023-03-01T05:00:37;-1.74;84.62
68257;DHT22;55069;51.568;4.656;2023-03-01T05:03:02;-1.74;84.58
68257;DHT22;55069;51.568;4.656;2023-03-01T05:05:34;-1.76;84.65
68257;DHT22;55069;51.568;4.656;2023-03-01T05:08:03;-1.78;84.21
68257;DHT22;55069;51.568;4.656;2023-03-01T05:10:30;-1.78;84.15
68257;DHT22;55069;51.568;4.656;2023-03-01T05:12:57;-1.85;84.21
68257;DHT22;55069;51.568;4.656;2023-03-01T05:15:27;-1.78;83.84
68257;DHT22;55069;51.568;4.656;2023-03-01T05:17:58;-1.76;83.65
68257;DHT22;55069;51.568;4.656;2023-03-01T05:20:29;-1.78;83.98
68257;DHT22;55069;51.568;4.656;2023-03-01T05:22:57;-1.82;84.22
68257;DHT22;55069;51.568;4.656;2023-03-01T05:25:24;-1.85;84.15
68257;DHT22;55069;51.568;4.656;2023-03-01T05:27:50;-1.81;83.68
68257;DHT22;55069;51.568;4.656;2023-03-01T05:30:16;-1.79;83.11
68257;DHT22;55069;51.568;4.656;2023-03-01T05:32:45;-1.92;83.30
68257;DHT22;55069;51.568;4.656;2023-03-01T05:35:12;-1.86;83.86
68257;DHT22;55069;51.568;4.656;2023-03-01T05:37:46;-1.92;83.51
68257;DHT22;55069;51.568;4.656;2023-03-01T05:40:15;-1.92;83.86
68257;DHT22;55069;51.568;4.656;2023-03-01T05:42:43;-1.78;82.93
68257;DHT22;55069;51.568;4.656;2023-03-01T05:45:09;-1.76;82.69
68257;DHT22;55069;51.568;4.656;2023-03-01T05:47:35;-1.81;82.74
68257;DHT22;55069;51.568;4.656;2023-03-01T05:50:01;-1.83;82.61
68257;DHT22;55069;51.568;4.656;2023-03-01T05:52:27;-1.78;82.23
68257;DHT22;55069;51.568;4.656;2023-03-01T05:54:52;-1.79;82.24
68257;DHT22;55069;51.568;4.656;2023-03-01T05:57:18;-1.74;82.11
68257;DHT22;55069;51.568;4.656;2023-03-01T05:59:43;-1.72;81.96
68257;DHT22;55069;51.568;4.656;2023-03-01T06:02:09;-1.69;81.97
68257;DHT22;55069;51.568;4.656;2023-03-01T06:04:34;-1.74;81.95
68257;DHT22;55069;51.568;4.656;2023-03-01T06:07:00;-1.89;82.35
68257;DHT22;55069;51.568;4.656;2023-03-01T06:09:25;-1.87;82.78
68257;DHT22;55069;51.568;4.656;2023-03-01T06:11:51;-1.89;83.28
68257;DHT22;55069;51.568;4.656;2023-03-01T06:14:16;-1.99;83.17
68257;DHT22;55069;51.568;4.656;2023-03-01T06:16:42;-1.90;82.95
68257;DHT22;55069;51.568;4.656;2023-03-01T06:19:07;-1.90;82.54
68257;DHT22;55069;51.568;4.656;2023-03-01T06:21:33;-1.95;83.11
68257;DHT22;55069;51.568;4.656;2023-03-01T06:23:58;-2.00;83.70
68257;DHT22;55069;51.568;4.656;2023-03-01T06:26:24;-2.07;83.85
68257;DHT22;55069;51.568;4.656;2023-03-01T06:28:49;-2.11;84.19
68257;DHT22;55069;51.568;4.656;2023-03-01T06:31:15;-2.03;83.53
68257;DHT22;55069;51.568;4.656;2023-03-01T06:33:41;-2.03;83.48
68257;DHT22;55069;51.568;4.656;2023-03-01T06:36:07;-2.06;83.37
68257;DHT22;55069;51.568;4.656;2023-03-01T06:38:33;-1.99;83.38
68257;DHT22;55069;51.568;4.656;2023-03-01T06:40:58;-1.92;82.97
68257;DHT22;55069;51.568;4.656;2023-03-01T06:43:24;-1.92;82.60
68257;DHT22;55069;51.568;4.656;2023-03-01T06:45:50;-1.87;82.54
68257;DHT22;55069;51.568;4.656;2023-03-01T06:48:15;-1.90;82.71
68257;DHT22;55069;51.568;4.656;2023-03-01T06:50:41;-1.97;83.15
68257;DHT22;55069;51.568;4.656;2023-03-01T06:53:06;-2.03;83.41
68257;DHT22;55069;51.568;4.656;2023-03-01T06:55:32;-2.11;83.80
68257;DHT22;55069;51.568;4.656;2023-03-01T06:57:59;-2.14;84.38
68257;DHT22;55069;51.568;4.656;2023-03-01T07:00:25;-2.17;84.48
68257;DHT22;55069;51.568;4.656;2023-03-01T07:02:51;-2.16;84.62
68257;DHT22;55069;51.568;4.656;2023-03-01T07:05:16;-2.13;84.62
68257;DHT22;55069;51.568;4.656;2023-03-01T07:07:42;-2.16;84.89
68257;DHT22;55069;51.568;4.656;2023-03-01T07:10:08;-2.16;85.45
68257;DHT22;55069;51.568;4.656;2023-03-01T07:12:34;-2.23;85.23
68257;DHT22;55069;51.568;4.656;2023-03-01T07:14:59;-2.26;85.60
68257;DHT22;55069;51.568;4.656;2023-03-01T07:17:25;-2.19;85.54
68257;DHT22;55069;51.568;4.656;2023-03-01T07:19:50;-2.14;85.52
68257;DHT22;55069;51.568;4.656;2023-03-01T07:22:16;-2.03;85.52
68257;DHT22;55069;51.568;4.656;2023-03-01T07:24:42;-1.82;84.59
68257;DHT22;55069;51.568;4.656;2023-03-01T07:27:08;-1.72;83.77
68257;DHT22;55069;51.568;4.656;2023-03-01T07:29:33;-1.54;82.70
68257;DHT22;55069;51.568;4.656;2023-03-01T07:32:03;-1.33;81.53
68257;DHT22;55069;51.568;4.656;2023-03-01T07:34:28;-1.19;81.04
68257;DHT22;55069;51.568;4.656;2023-03-01T07:36:54;-1.21;81.40
68257;DHT22;55069;51.568;4.656;2023-03-01T07:39:19;-1.14;81.63
68257;DHT22;55069;51.568;4.656;2023-03-01T07:41:45;-1.07;81.05
68257;DHT22;55069;51.568;4.656;2023-03-01T07:44:11;-0.93;80.34
68257;DHT22;55069;51.568;4.656;2023-03-01T07:46:36;-0.76;80.02
68257;DHT22;55069;51.568;4.656;2023-03-01T07:49:02;-0.71;79.94
68257;DHT22;55069;51.568;4.656;2023-03-01T07:51:27;-0.62;79.77
68257;DHT22;55069;51.568;4.656;2023-03-01T07:53:53;-0.52;79.03
68257;DHT22;55069;51.568;4.656;2023-03-01T07:56:18;-0.50;79.28
68257;DHT22;55069;51.568;4.656;2023-03-01T07:58:45;-0.40;79.42
68257;DHT22;55069;51.568;4.656;2023-03-01T08:01:13;-0.25;78.87
68257;DHT22;55069;51.568;4.656;2023-03-01T08:03:38;-0.20;78.98
68257;DHT22;55069;51.568;4.656;2023-03-01T08:06:06;-0.10;79.01
68257;DHT22;55069;51.568;4.656;2023-03-01T08:08:32;0.07;78.07
68257;DHT22;55069;51.568;4.656;2023-03-01T08:11:03;0.37;76.59
68257;DHT22;55069;51.568;4.656;2023-03-01T08:13:29;0.55;76.06
68257;DHT22;55069;51.568;4.656;2023-03-01T08:16:01;0.61;75.52
68257;DHT22;55069;51.568;4.656;2023-03-01T08:18:27;0.72;75.85
68257;DHT22;55069;51.568;4.656;2023-03-01T08:20:52;0.92;73.94
68257;DHT22;55069;51.568;4.656;2023-03-01T08:23:18;1.04;74.29
68257;DHT22;55069;51.568;4.656;2023-03-01T08:25:43;1.19;74.05
68257;DHT22;55069;51.568;4.656;2023-03-01T08:28:09;1.30;73.20
68257;DHT22;55069;51.568;4.656;2023-03-01T08:30:34;1.45;73.40
68257;DHT22;55069;51.568;4.656;2023-03-01T08:33:00;1.58;72.62
68257;DHT22;55069;51.568;4.656;2023-03-01T08:35:26;1.72;71.66
68257;DHT22;55069;51.568;4.656;2023-03-01T08:37:51;1.82;71.46
68257;DHT22;55069;51.568;4.656;2023-03-01T08:40:17;1.97;70.89
68257;DHT22;55069;51.568;4.656;2023-03-01T08:42:43;2.06;69.96
68257;DHT22;55069;51.568;4.656;2023-03-01T08:45:09;2.20;69.89
68257;DHT22;55069;51.568;4.656;2023-03-01T08:47:35;2.27;68.96
68257;DHT22;55069;51.568;4.656;2023-03-01T08:50:02;2.31;68.11
68257;DHT22;55069;51.568;4.656;2023-03-01T08:52:27;2.44;67.98
68257;DHT22;55069;51.568;4.656;2023-03-01T08:54:53;2.54;67.82
68257;DHT22;55069;51.568;4.656;2023-03-01T08:57:19;2.65;67.65
68257;DHT22;55069;51.568;4.656;2023-03-01T08:59:44;2.81;66.18
68257;DHT22;55069;51.568;4.656;2023-03-01T09:02:15;2.93;65.83
68257;DHT22;55069;51.568;4.656;2023-03-01T09:04:41;3.09;65.62
68257;DHT22;55069;51.568;4.656;2023-03-01T09:07:07;3.19;66.00
68257;DHT22;55069;51.568;4.656;2023-03-01T09:09:33;3.24;64.14
68257;DHT22;55069;51.568;4.656;2023-03-01T09:11:58;3.30;64.05
68257;DHT22;55069;51.568;4.656;2023-03-01T09:14:24;3.43;65.28
68257;DHT22;55069;51.568;4.656;2023-03-01T09:16:50;3.51;62.94
68257;DHT22;55069;51.568;4.656;2023-03-01T09:19:16;3.60;63.02
68257;DHT22;55069;51.568;4.656;2023-03-01T09:21:41;3.71;62.11
68257;DHT22;55069;51.568;4.656;2023-03-01T09:24:22;3.74;62.59
68257;DHT22;55069;51.568;4.656;2023-03-01T09:26:48;3.77;61.35
68257;DHT22;55069;51.568;4.656;2023-03-01T09:29:14;3.92;61.47
68257;DHT22;55069;51.568;4.656;2023-03-01T09:31:40;3.96;61.30
68257;DHT22;55069;51.568;4.656;2023-03-01T09:34:07;3.85;60.30
68257;DHT22;55069;51.568;4.656;2023-03-01T09:36:33;3.98;61.00
68257;DHT22;55069;51.568;4.656;2023-03-01T09:38:59;4.06;59.75
68257;DHT22;55069;51.568;4.656;2023-03-01T09:46:45;4.27;60.08
68257;DHT22;55069;51.568;4.656;2023-03-01T09:49:18;4.40;60.71
68257;DHT22;55069;51.568;4.656;2023-03-01T09:51:54;4.48;58.80
68257;DHT22;55069;51.568;4.656;2023-03-01T09:54:20;4.43;59.15
68257;DHT22;55069;51.568;4.656;2023-03-01T10:03:09;4.47;59.86
68257;DHT22;55069;51.568;4.656;2023-03-01T10:05:40;4.44;59.37
68257;DHT22;55069;51.568;4.656;2023-03-01T10:08:26;4.44;59.31
68257;DHT22;55069;51.568;4.656;2023-03-01T10:10:55;4.46;59.35
68257;DHT22;55069;51.568;4.656;2023-03-01T10:16:09;4.51;59.08
68257;DHT22;55069;51.568;4.656;2023-03-01T10:18:37;4.58;58.50
68257;DHT22;55069;51.568;4.656;2023-03-01T10:21:13;4.65;58.49
68257;DHT22;55069;51.568;4.656;2023-03-01T10:23:40;4.65;58.33
68257;DHT22;55069;51.568;4.656;2023-03-01T10:29:01;4.86;58.69
68257;DHT22;55069;51.568;4.656;2023-03-01T10:34:32;5.08;58.62
68257;DHT22;55069;51.568;4.656;2023-03-01T10:37:15;5.09;58.34
68257;DHT22;55069;51.568;4.656;2023-03-01T10:40:00;5.13;58.54
68257;DHT22;55069;51.568;4.656;2023-03-01T10:42:35;5.04;57.50
68257;DHT22;55069;51.568;4.656;2023-03-01T10:45:30;5.29;57.65
68257;DHT22;55069;51.568;4.656;2023-03-01T10:48:26;5.47;56.98
68257;DHT22;55069;51.568;4.656;2023-03-01T10:53:36;5.73;56.18
68257;DHT22;55069;51.568;4.656;2023-03-01T10:56:06;5.64;55.83
68257;DHT22;55069;51.568;4.656;2023-03-01T10:58:37;5.48;54.98
68257;DHT22;55069;51.568;4.656;2023-03-01T11:03:41;5.50;55.67
68257;DHT22;55069;51.568;4.656;2023-03-01T11:08:46;5.74;55.62
68257;DHT22;55069;51.568;4.656;2023-03-01T11:11:37;5.79;55.77
68257;DHT22;55069;51.568;4.656;2023-03-01T11:14:17;5.65;55.58
68257;DHT22;55069;51.568;4.656;2023-03-01T11:16:48;5.60;56.46
68257;DHT22;55069;51.568;4.656;2023-03-01T11:19:19;5.57;56.64
68257;DHT22;55069;51.568;4.656;2023-03-01T11:22:11;5.64;56.42
68257;DHT22;55069;51.568;4.656;2023-03-01T11:24:42;5.77;55.53
68257;DHT22;55069;51.568;4.656;2023-03-01T11:27:16;5.92;56.12
68257;DHT22;55069;51.568;4.656;2023-03-01T11:29:46;5.78;54.32
68257;DHT22;55069;51.568;4.656;2023-03-01T11:32:17;5.90;55.75
68257;DHT22;55069;51.568;4.656;2023-03-01T11:34:53;6.02;56.02
68257;DHT22;55069;51.568;4.656;2023-03-01T11:40:05;5.73;55.84
68257;DHT22;55069;51.568;4.656;2023-03-01T11:42:47;5.97;56.75
68257;DHT22;55069;51.568;4.656;2023-03-01T11:45:13;5.90;55.67
68257;DHT22;55069;51.568;4.656;2023-03-01T11:47:54;5.87;54.93
68257;DHT22;55069;51.568;4.656;2023-03-01T11:59:06;5.82;55.48
68257;DHT22;55069;51.568;4.656;2023-03-01T12:04:50;6.12;55.07
68257;DHT22;55069;51.568;4.656;2023-03-01T12:07:24;6.36;54.48
68257;DHT22;55069;51.568;4.656;2023-03-01T12:12:34;6.25;54.21
68257;DHT22;55069;51.568;4.656;2023-03-01T12:18:05;6.12;55.22
68257;DHT22;55069;51.568;4.656;2023-03-01T12:37:29;6.36;54.84
68257;DHT22;55069;51.568;4.656;2023-03-01T12:48:54;6.39;54.46
68257;DHT22;55069;51.568;4.656;2023-03-01T12:51:26;6.54;55.60
68257;DHT22;55069;51.568;4.656;2023-03-01T12:53:53;6.77;54.70
68257;DHT22;55069;51.568;4.656;2023-03-01T12:56:26;6.80;53.66
68257;DHT22;55069;51.568;4.656;2023-03-01T13:01:45;7.05;52.42
68257;DHT22;55069;51.568;4.656;2023-03-01T13:15:32;6.84;53.82
68257;DHT22;55069;51.568;4.656;2023-03-01T13:18:04;6.87;52.83
68257;DHT22;55069;51.568;4.656;2023-03-01T13:20:49;7.02;52.89
68257;DHT22;55069;51.568;4.656;2023-03-01T13:26:03;7.22;51.98
68257;DHT22;55069;51.568;4.656;2023-03-01T13:31:05;7.14;53.26
68257;DHT22;55069;51.568;4.656;2023-03-01T13:35:58;6.91;51.32
68257;DHT22;55069;51.568;4.656;2023-03-01T13:38:47;7.05;53.02
68257;DHT22;55069;51.568;4.656;2023-03-01T13:41:15;6.97;52.07
68257;DHT22;55069;51.568;4.656;2023-03-01T13:43:42;7.04;52.96
68257;DHT22;55069;51.568;4.656;2023-03-01T13:46:18;7.11;51.64
68257;DHT22;55069;51.568;4.656;2023-03-01T13:48:49;7.02;51.14
68257;DHT22;55069;51.568;4.656;2023-03-01T13:51:16;6.94;50.34
68257;DHT22;55069;51.568;4.656;2023-03-01T13:53:47;7.18;52.49
68257;DHT22;55069;51.568;4.656;2023-03-01T13:56:16;6.98;50.81
68257;DHT22;55069;51.568;4.656;2023-03-01T13:59:31;6.92;51.80
68257;DHT22;55069;51.568;4.656;2023-03-01T14:01:38;7.08;51.19
68257;DHT22;55069;51.568;4.656;2023-03-01T14:04:24;7.22;52.61
68257;DHT22;55069;51.568;4.656;2023-03-01T14:06:51;7.36;51.81
68257;DHT22;55069;51.568;4.656;2023-03-01T14:09:23;7.36;50.98
68257;DHT22;55069;51.568;4.656;2023-03-01T14:14:52;7.32;52.29
68257;DHT22;55069;51.568;4.656;2023-03-01T14:19:47;7.15;52.51
68257;DHT22;55069;51.568;4.656;2023-03-01T14:22:34;7.14;51.86
68257;DHT22;55069;51.568;4.656;2023-03-01T14:25:05;7.12;51.44
68257;DHT22;55069;51.568;4.656;2023-03-01T14:27:41;7.09;53.84
68257;DHT22;55069;51.568;4.656;2023-03-01T14:30:43;7.04;52.22
68257;DHT22;55069;51.568;4.656;2023-03-01T14:33:36;7.01;51.74
68257;DHT22;55069;51.568;4.656;2023-03-01T14:38:37;7.08;53.21
68257;DHT22;55069;51.568;4.656;2023-03-01T14:41:15;7.02;52.91
68257;DHT22;55069;51.568;4.656;2023-03-01T14:43:47;6.99;53.48
68257;DHT22;55069;51.568;4.656;2023-03-01T14:46:28;6.98;53.43
68257;DHT22;55069;51.568;4.656;2023-03-01T14:49:24;6.94;53.25
68257;DHT22;55069;51.568;4.656;2023-03-01T14:51:52;6.89;53.11
68257;DHT22;55069;51.568;4.656;2023-03-01T14:57:03;7.02;53.34
68257;DHT22;55069;51.568;4.656;2023-03-01T14:59:28;6.94;54.08
68257;DHT22;55069;51.568;4.656;2023-03-01T15:01:58;6.89;53.67
68257;DHT22;55069;51.568;4.656;2023-03-01T15:04:24;6.92;53.92
68257;DHT22;55069;51.568;4.656;2023-03-01T15:06:52;6.95;53.93
68257;DHT22;55069;51.568;4.656;2023-03-01T15:09:19;7.02;53.55
68257;DHT22;55069;51.568;4.656;2023-03-01T15:11:46;7.01;54.58
68257;DHT22;55069;51.568;4.656;2023-03-01T15:19:46;6.98;53.33
68257;DHT22;55069;51.568;4.656;2023-03-01T15:22:15;6.94;55.17
68257;DHT22;55069;51.568;4.656;2023-03-01T15:24:46;6.97;54.37
68257;DHT22;55069;51.568;4.656;2023-03-01T15:27:19;6.94;54.19
68257;DHT22;55069;51.568;4.656;2023-03-01T15:30:00;6.94;53.23
68257;DHT22;55069;51.568;4.656;2023-03-01T15:32:32;7.01;55.92
68257;DHT22;55069;51.568;4.656;2023-03-01T15:35:40;7.04;53.45
68257;DHT22;55069;51.568;4.656;2023-03-01T15:38:51;7.01;53.13
68257;DHT22;55069;51.568;4.656;2023-03-01T15:43:57;6.95;58.61
68257;DHT22;55069;51.568;4.656;2023-03-01T15:46:31;6.92;53.95
68257;DHT22;55069;51.568;4.656;2023-03-01T15:48:59;6.85;54.64
68257;DHT22;55069;51.568;4.656;2023-03-01T15:51:37;6.85;54.64
68257;DHT22;55069;51.568;4.656;2023-03-01T15:54:17;6.87;55.04
68257;DHT22;55069;51.568;4.656;2023-03-01T15:56:43;6.80;53.90
68257;DHT22;55069;51.568;4.656;2023-03-01T15:59:10;6.85;55.04
68257;DHT22;55069;51.568;4.656;2023-03-01T16:01:43;6.83;54.95
68257;DHT22;55069;51.568;4.656;2023-03-01T16:04:10;6.91;54.74
68257;DHT22;55069;51.568;4.656;2023-03-01T16:06:38;6.92;54.71
68257;DHT22;55069;51.568;4.656;2023-03-01T16:09:04;6.98;53.98
68257;DHT22;55069;51.568;4.656;2023-03-01T16:11:30;7.02;53.49
68257;DHT22;55069;51.568;4.656;2023-03-01T16:13:57;7.15;53.95
68257;DHT22;55069;51.568;4.656;2023-03-01T16:16:23;7.30;53.81
68257;DHT22;55069;51.568;4.656;2023-03-01T16:18:49;7.33;54.44
68257;DHT22;55069;51.568;4.656;2023-03-01T16:21:22;7.40;56.31
68257;DHT22;55069;51.568;4.656;2023-03-01T16:23:49;7.53;53.00
68257;DHT22;55069;51.568;4.656;2023-03-01T16:26:15;7.50;52.03
68257;DHT22;55069;51.568;4.656;2023-03-01T16:28:42;7.43;53.73
68257;DHT22;55069;51.568;4.656;2023-03-01T16:31:08;7.50;52.23
68257;DHT22;55069;51.568;4.656;2023-03-01T16:33:34;7.47;51.92
68257;DHT22;55069;51.568;4.656;2023-03-01T16:36:08;7.28;53.00
68257;DHT22;55069;51.568;4.656;2023-03-01T16:38:33;7.33;53.04
68257;DHT22;55069;51.568;4.656;2023-03-01T16:41:00;7.36;52.25
68257;DHT22;55069;51.568;4.656;2023-03-01T16:43:26;7.30;52.92
68257;DHT22;55069;51.568;4.656;2023-03-01T16:45:51;7.14;53.27
68257;DHT22;55069;51.568;4.656;2023-03-01T16:48:17;7.19;53.06
68257;DHT22;55069;51.568;4.656;2023-03-01T16:50:43;7.09;55.95
68257;DHT22;55069;51.568;4.656;2023-03-01T16:53:09;6.74;54.60
68257;DHT22;55069;51.568;4.656;2023-03-01T16:55:34;6.49;56.81
68257;DHT22;55069;51.568;4.656;2023-03-01T16:58:01;6.22;54.91
68257;DHT22;55069;51.568;4.656;2023-03-01T17:00:27;6.05;57.38
68257;DHT22;55069;51.568;4.656;2023-03-01T17:02:54;5.87;57.49
68257;DHT22;55069;51.568;4.656;2023-03-01T17:05:19;5.77;57.35
68257;DHT22;55069;51.568;4.656;2023-03-01T17:07:46;5.63;57.58
68257;DHT22;55069;51.568;4.656;2023-03-01T17:10:11;5.65;56.53
68257;DHT22;55069;51.568;4.656;2023-03-01T17:12:38;5.51;56.84
68257;DHT22;55069;51.568;4.656;2023-03-01T17:15:05;5.39;57.92
68257;DHT22;55069;51.568;4.656;2023-03-01T17:17:31;5.29;59.37
68257;DHT22;55069;51.568;4.656;2023-03-01T17:19:56;5.25;57.89
68257;DHT22;55069;51.568;4.656;2023-03-01T17:22:22;5.18;59.10
68257;DHT22;55069;51.568;4.656;2023-03-01T17:24:48;5.08;58.55
68257;DHT22;55069;51.568;4.656;2023-03-01T17:27:13;4.96;63.52
68257;DHT22;55069;51.568;4.656;2023-03-01T17:29:40;4.85;63.16
68257;DHT22;55069;51.568;4.656;2023-03-01T17:32:06;4.79;61.36
68257;DHT22;55069;51.568;4.656;2023-03-01T17:34:32;4.68;62.32
68257;DHT22;55069;51.568;4.656;2023-03-01T17:36:58;4.65;60.47
68257;DHT22;55069;51.568;4.656;2023-03-01T17:39:24;4.64;62.08
68257;DHT22;55069;51.568;4.656;2023-03-01T17:41:52;4.61;61.53
68257;DHT22;55069;51.568;4.656;2023-03-01T17:44:18;4.51;61.30
68257;DHT22;55069;51.568;4.656;2023-03-01T17:46:44;4.46;63.38
68257;DHT22;55069;51.568;4.656;2023-03-01T17:49:10;4.43;62.33
68257;DHT22;55069;51.568;4.656;2023-03-01T17:51:35;4.44;63.74